Time;durP1;ratioP1;P1;durP2;ratioP2;P2;SDS_P1;SDS_P2;PMS_P1;PMS_P2;Temp;Humidity;BMP_temperature;BMP_pressure;BME280_temperature;BME280_humidity;BME280_pressure;Samples;Min_cycle;Max_cycle;Signal;HPM_P1;HPM_P2
2021/04/14 00:00:21;;;;;;;24.37;13.23;;;;;;;10.11;50.06;100522.33;126276;1099;104268;-77
2021/04/14 00:03:16;;;;;;;24.77;13.43;;;;;;;10.07;50.24;100523.95;126342;1099;104133;-77
2021/04/14 00:05:45;;;;;;;26.13;14.37;;;;;;;10.04;50.26;100518.59;126188;1099;104165;-77
2021/04/14 00:08:15;;;;;;;25.57;14.13;;;;;;;9.97;50.47;100525.33;126240;1099;101777;-76
2021/04/14 00:10:45;;;;;;;26.33;13.60;;;;;;;9.94;50.08;100527.84;126231;1099;104264;-77
2021/04/14 00:13:17;;;;;;;26.90;14.45;;;;;;;9.87;50.60;100526.68;126291;1099;104567;-77
2021/04/14 00:15:49;;;;;;;24.53;13.73;;;;;;;9.86;50.63;100526.62;126264;1099;104332;-77
2021/04/14 00:18:19;;;;;;;27.23;14.00;;;;;;;9.80;50.20;100527.30;126293;1099;104237;-77
2021/04/14 00:20:49;;;;;;;25.47;14.23;;;;;;;9.79;50.84;100525.50;126291;1099;104323;-77
2021/04/14 00:23:20;;;;;;;25.65;13.55;;;;;;;9.76;50.41;100530.62;126285;1099;104565;-77
2021/04/14 00:25:51;;;;;;;27.40;13.30;;;;;;;9.73;51.21;100522.64;126170;1099;104641;-77
2021/04/14 00:28:22;;;;;;;23.47;12.73;;;;;;;9.73;51.00;100524.38;126288;1099;104140;-78
2021/04/14 00:30:52;;;;;;;26.43;13.70;;;;;;;9.76;50.63;100530.62;126255;1099;104194;-78
2021/04/14 00:33:23;;;;;;;28.93;13.37;;;;;;;9.80;51.26;100526.38;126238;1099;104197;-77
2021/04/14 00:35:53;;;;;;;25.90;13.33;;;;;;;9.80;51.44;100527.30;126248;1099;104194;-77
2021/04/14 00:38:23;;;;;;;26.17;13.07;;;;;;;9.81;50.87;100525.56;126231;1099;104251;-76
2021/04/14 00:40:58;;;;;;;24.17;12.70;;;;;;;9.82;50.95;100525.63;126209;1099;104195;-78
2021/04/14 00:43:30;;;;;;;26.67;12.73;;;;;;;9.84;51.25;100533.55;126220;1099;104278;-78
2021/04/14 00:46:00;;;;;;;22.77;12.67;;;;;;;9.84;51.14;100523.94;126189;1099;104188;-77
2021/04/14 00:48:30;;;;;;;24.27;12.43;;;;;;;9.85;51.34;100520.50;126265;1099;104139;-77
2021/04/14 00:51:00;;;;;;;26.17;13.03;;;;;;;9.82;51.08;100523.00;126304;1097;104146;-77
2021/04/14 00:53:30;;;;;;;27.83;14.17;;;;;;;9.79;51.31;100519.38;126323;1099;104142;-77
2021/04/14 00:56:00;;;;;;;24.17;12.60;;;;;;;9.74;52.20;100515.66;126243;1099;104851;-77
2021/04/14 00:58:28;;;;;;;25.33;12.47;;;;;;;9.63;51.56;100521.39;126218;1098;104322;-77
2021/04/14 01:00:57;;;;;;;26.67;13.10;;;;;;;9.62;51.57;100509.11;126263;1099;104141;-77
2021/04/14 01:03:32;;;;;;;27.00;13.90;;;;;;;9.62;52.35;100511.73;125287;1099;104195;-78
2021/04/14 01:06:05;;;;;;;25.13;12.43;;;;;;;9.59;52.00;100506.37;126277;1099;104216;-78
2021/04/14 01:08:34;;;;;;;25.33;12.93;;;;;;;9.51;51.86;100507.80;126277;1099;104152;-78
2021/04/14 01:11:04;;;;;;;26.10;11.90;;;;;;;9.46;52.59;100506.73;126278;1099;104137;-78
2021/04/14 01:13:34;;;;;;;26.80;12.70;;;;;;;9.40;52.03;100509.09;126268;1099;104280;-79
2021/04/14 01:16:04;;;;;;;25.67;12.73;;;;;;;9.37;52.71;100506.36;126101;1099;104226;-78
2021/04/14 01:18:36;;;;;;;25.67;13.43;;;;;;;9.38;52.91;100505.50;126280;1099;104271;-77
2021/04/14 01:21:09;;;;;;;25.73;12.60;;;;;;;9.38;52.70;100495.03;125419;1099;104277;-77
2021/04/14 01:23:39;;;;;;;23.23;11.83;;;;;;;9.33;52.55;100501.00;126230;1099;104226;-77
2021/04/14 01:26:08;;;;;;;25.90;13.53;;;;;;;9.27;52.64;100498.13;126184;1099;104168;-77
2021/04/14 01:28:39;;;;;;;27.00;14.30;;;;;;;9.21;52.57;100492.63;126273;1098;104284;-78
2021/04/14 01:31:12;;;;;;;25.00;13.70;;;;;;;9.18;53.28;100488.16;126325;1099;104169;-78
2021/04/14 01:33:41;;;;;;;27.13;14.97;;;;;;;9.16;53.29;100487.21;126250;1099;104242;-79
2021/04/14 01:36:11;;;;;;;27.20;13.43;;;;;;;9.15;53.27;100488.03;126182;1099;103295;-77
2021/04/14 01:38:40;;;;;;;28.80;14.20;;;;;;;9.17;53.71;100485.47;126308;1098;104139;-78
2021/04/14 01:41:09;;;;;;;28.43;14.27;;;;;;;9.19;53.25;100486.42;126261;1099;104141;-77
2021/04/14 01:43:38;;;;;;;29.13;14.60;;;;;;;9.21;53.29;100483.86;126303;1098;104149;-77
2021/04/14 01:46:07;;;;;;;25.67;14.60;;;;;;;9.22;53.53;100477.81;126232;1099;104149;-76
2021/04/14 01:48:36;;;;;;;26.45;13.70;;;;;;;9.23;53.73;100470.02;126237;1099;104172;-77
2021/04/14 01:51:05;;;;;;;27.60;13.97;;;;;;;9.24;53.66;100476.14;126315;1099;104220;-77
2021/04/14 01:53:34;;;;;;;23.57;13.90;;;;;;;9.17;53.72;100475.00;126317;1099;104322;-77
2021/04/14 01:56:04;;;;;;;24.30;12.43;;;;;;;9.12;53.88;100471.31;126339;1098;104142;-77
2021/04/14 01:58:33;;;;;;;30.53;14.00;;;;;;;9.03;54.10;100463.96;126323;1099;118954;-78
2021/04/14 02:01:06;;;;;;;27.37;14.70;;;;;;;8.96;54.18;100460.20;126227;1099;104271;-78
2021/04/14 02:03:38;;;;;;;24.43;12.50;;;;;;;8.93;54.53;100460.08;126320;1099;104140;-77
2021/04/14 02:06:09;;;;;;;24.67;13.43;;;;;;;8.92;54.67;100460.90;126233;1099;104130;-78
2021/04/14 02:08:38;;;;;;;26.20;13.63;;;;;;;8.92;54.41;100460.02;126306;1099;104147;-78
2021/04/14 02:11:08;;;;;;;26.35;14.20;;;;;;;8.86;54.52;100457.14;126260;1098;104149;-77
2021/04/14 02:13:40;;;;;;;25.50;13.47;;;;;;;8.87;54.65;100449.36;126146;1099;104759;-78
2021/04/14 02:16:13;;;;;;;24.97;14.30;;;;;;;8.91;55.05;100463.45;126277;1099;104139;-78
2021/04/14 02:18:42;;;;;;;27.03;14.17;;;;;;;8.94;54.77;100461.88;126255;1099;104150;-78
2021/04/14 02:21:11;;;;;;;23.37;13.13;;;;;;;8.94;54.57;100453.11;126208;1099;104149;-79
2021/04/14 02:23:41;;;;;;;27.67;14.33;;;;;;;8.93;55.23;100457.46;126157;1099;104261;-77
2021/04/14 02:26:13;;;;;;;26.47;14.97;;;;;;;8.94;55.23;100455.73;126261;1099;104162;-77
2021/04/14 02:28:45;;;;;;;30.00;14.93;;;;;;;8.95;54.97;100460.14;126200;1099;104258;-78
2021/04/14 02:31:16;;;;;;;28.57;15.13;;;;;;;8.98;55.36;100444.57;126222;1099;104216;-77
2021/04/14 02:33:47;;;;;;;27.27;13.87;;;;;;;9.01;55.19;100452.55;126307;1099;104134;-78
2021/04/14 02:36:16;;;;;;;25.80;13.90;;;;;;;9.04;55.09;100450.06;126303;1099;104414;-77
2021/04/14 02:38:44;;;;;;;29.13;13.80;;;;;;;9.06;55.50;100443.15;126195;1099;104134;-78
2021/04/14 02:41:13;;;;;;;27.43;13.47;;;;;;;9.05;54.86;100445.70;126295;1099;104130;-77
2021/04/14 02:43:42;;;;;;;27.40;13.77;;;;;;;9.07;55.35;100441.41;126296;1099;104162;-76
2021/04/14 02:46:11;;;;;;;26.17;13.43;;;;;;;9.04;55.40;100436.05;126292;1099;104146;-77
2021/04/14 02:48:40;;;;;;;28.27;14.17;;;;;;;9.04;55.58;100433.44;125737;1099;104329;-78
2021/04/14 02:51:10;;;;;;;23.10;12.70;;;;;;;9.00;55.67;100435.05;126266;1099;104149;-78
2021/04/14 02:53:38;;;;;;;27.60;14.20;;;;;;;8.94;55.95;100424.33;126340;1099;104267;-78
2021/04/14 02:56:14;;;;;;;26.20;13.67;;;;;;;8.93;56.07;100439.14;126294;1099;104599;-78
2021/04/14 02:58:46;;;;;;;25.90;13.80;;;;;;;8.90;55.92;100427.66;126186;1099;104179;-79
2021/04/14 03:01:16;;;;;;;26.00;14.67;;;;;;;8.87;56.22;100433.66;126263;1098;104130;-78
2021/04/14 03:03:45;;;;;;;27.03;15.83;;;;;;;8.85;56.06;100437.94;126206;1099;104187;-77
2021/04/14 03:06:15;;;;;;;27.23;15.10;;;;;;;8.85;55.62;100429.17;126300;1099;104267;-77
2021/04/14 03:08:45;;;;;;;29.27;14.83;;;;;;;8.86;55.84;100439.70;126221;1099;104153;-78
2021/04/14 03:11:14;;;;;;;27.37;14.67;;;;;;;8.86;55.79;100442.33;126227;1099;104316;-78
2021/04/14 03:13:43;;;;;;;27.57;14.70;;;;;;;8.86;56.24;100444.94;126237;1099;104246;-77
2021/04/14 03:16:12;;;;;;;26.97;13.43;;;;;;;8.84;55.92;100449.23;126274;1099;104152;-77
2021/04/14 03:18:40;;;;;;;26.00;14.20;;;;;;;8.82;56.14;100448.28;126241;1099;104165;-77
2021/04/14 03:21:09;;;;;;;29.47;14.77;;;;;;;8.77;56.34;100448.09;126242;1098;104214;-77
2021/04/14 03:23:38;;;;;;;30.73;15.30;;;;;;;8.72;56.30;100449.59;126260;1099;104293;-77
2021/04/14 03:26:07;;;;;;;28.37;14.50;;;;;;;8.69;56.32;100456.42;126246;1099;104146;-77
2021/04/14 03:28:36;;;;;;;31.17;15.23;;;;;;;8.68;56.75;100452.02;126089;1099;104721;-77
2021/04/14 03:31:05;;;;;;;26.20;13.40;;;;;;;8.70;56.90;100447.77;126246;1099;104152;-77
2021/04/14 03:33:34;;;;;;;27.90;14.90;;;;;;;8.75;56.99;100454.07;126266;1099;104137;-77
2021/04/14 03:36:04;;;;;;;27.17;14.10;;;;;;;8.81;57.16;100454.33;126292;1099;104610;-78
2021/04/14 03:38:33;;;;;;;29.93;14.60;;;;;;;8.87;56.83;100453.70;126243;1099;105667;-77
2021/04/14 03:41:02;;;;;;;25.47;14.13;;;;;;;8.89;56.91;100460.77;126235;1099;104261;-77
2021/04/14 03:43:31;;;;;;;28.87;14.00;;;;;;;8.88;56.75;100461.63;126261;1099;104200;-78
2021/04/14 03:46:00;;;;;;;30.23;15.63;;;;;;;8.84;56.78;100467.55;126255;1099;104143;-77
2021/04/14 03:48:31;;;;;;;27.33;15.47;;;;;;;8.86;57.21;100460.64;126161;1099;104139;-78
2021/04/14 03:51:00;;;;;;;28.50;15.17;;;;;;;8.93;57.03;100467.93;126222;1099;117736;-79
2021/04/14 03:53:34;;;;;;;29.65;14.40;;;;;;;8.95;57.60;100473.23;126187;1099;104269;-78
2021/04/14 03:56:07;;;;;;;29.92;15.25;;;;;;;8.97;56.93;100480.30;126003;1099;104201;-78
2021/04/14 03:58:37;;;;;;;29.97;15.20;;;;;;;9.02;57.06;100475.25;126118;1099;104145;-76
2021/04/14 04:01:09;;;;;;;29.23;15.50;;;;;;;9.06;57.04;100474.56;125992;1099;104299;-76
2021/04/14 04:03:38;;;;;;;37.20;16.20;;;;;;;9.14;57.21;100474.87;126056;1099;104255;-78
2021/04/14 04:06:07;;;;;;;34.10;15.80;;;;;;;9.22;56.99;100477.81;126095;1099;104144;-78
2021/04/14 04:08:36;;;;;;;28.23;14.90;;;;;;;9.27;57.41;100478.88;126257;1099;104143;-77
2021/04/14 04:11:06;;;;;;;29.73;15.17;;;;;;;9.31;57.61;100483.42;126150;1098;104245;-77
2021/04/14 04:13:35;;;;;;;29.43;15.83;;;;;;;9.31;57.53;100478.19;126265;1099;104143;-78
2021/04/14 04:16:06;;;;;;;34.40;16.87;;;;;;;9.29;57.22;100485.98;126214;1099;104191;-78
2021/04/14 04:18:36;;;;;;;33.83;16.80;;;;;;;9.32;57.66;100485.22;125981;1099;104165;-79
2021/04/14 04:21:07;;;;;;;31.97;17.30;;;;;;;9.37;57.50;100488.03;125973;1099;104165;-78
2021/04/14 04:23:37;;;;;;;31.83;16.83;;;;;;;9.39;57.41;100495.09;126034;1099;104149;-78
2021/04/14 04:26:06;;;;;;;32.27;16.53;;;;;;;9.42;57.44;100497.83;125981;1099;104233;-79
2021/04/14 04:28:35;;;;;;;32.20;16.40;;;;;;;9.46;57.62;100496.25;125968;1099;104306;-79
2021/04/14 04:31:05;;;;;;;31.37;15.63;;;;;;;9.51;57.56;100499.94;126021;1099;104149;-79
2021/04/14 04:33:34;;;;;;;30.43;14.70;;;;;;;9.52;57.55;100501.70;126214;1099;104149;-78
2021/04/14 04:36:04;;;;;;;26.37;14.53;;;;;;;9.48;57.72;100500.70;126250;1099;104192;-78
2021/04/14 04:38:34;;;;;;;27.77;15.97;;;;;;;9.50;57.93;100499.02;126166;1099;104182;-78
2021/04/14 04:41:06;;;;;;;27.23;15.33;;;;;;;9.54;58.21;100492.20;126000;1099;105642;-78
2021/04/14 04:43:34;;;;;;;27.90;15.03;;;;;;;9.60;57.95;100499.39;125964;1099;104275;-77
2021/04/14 04:46:04;;;;;;;35.50;15.53;;;;;;;9.67;58.36;100498.81;125895;1099;104242;-78
2021/04/14 04:48:32;;;;;;;32.53;15.57;;;;;;;9.73;57.68;100503.41;126109;1098;104296;-78
2021/04/14 04:51:01;;;;;;;33.67;14.80;;;;;;;9.76;58.21;100498.29;126020;1099;104078;-78
2021/04/14 04:53:30;;;;;;;31.27;16.17;;;;;;;9.79;58.10;100506.27;126011;1099;104149;-78
2021/04/14 04:55:58;;;;;;;28.07;14.73;;;;;;;9.84;58.10;100509.95;126140;1099;104140;-78
2021/04/14 04:58:27;;;;;;;31.60;14.70;;;;;;;9.88;57.82;100504.01;126156;1099;104140;-78
2021/04/14 05:00:56;;;;;;;28.97;15.60;;;;;;;9.95;58.38;100500.77;126185;1099;104217;-78
2021/04/14 05:03:29;;;;;;;27.27;14.60;;;;;;;10.00;58.21;100500.94;126132;1099;104223;-78
2021/04/14 05:06:00;;;;;;;27.53;14.37;;;;;;;9.98;58.11;100502.63;126073;1099;104149;-78
2021/04/14 05:08:29;;;;;;;28.50;15.37;;;;;;;9.99;58.52;100500.06;125924;1099;104201;-78
2021/04/14 05:10:58;;;;;;;29.43;16.33;;;;;;;10.02;58.49;100502.80;126142;1099;104145;-79
2021/04/14 05:13:27;;;;;;;34.53;17.33;;;;;;;10.02;58.54;100502.80;126059;1099;104245;-78
2021/04/14 05:15:56;;;;;;;32.57;17.00;;;;;;;10.08;58.36;100491.63;125935;1098;104267;-79
2021/04/14 05:18:25;;;;;;;28.70;16.07;;;;;;;10.13;58.84;100492.72;125978;1099;104245;-79
2021/04/14 05:20:54;;;;;;;31.63;16.07;;;;;;;10.22;58.67;100494.77;125772;1099;104213;-76
2021/04/14 05:23:23;;;;;;;30.23;15.20;;;;;;;10.35;58.34;100496.17;125812;1099;104222;-77
2021/04/14 05:25:52;;;;;;;28.97;15.07;;;;;;;10.52;58.38;100494.16;125723;1099;104160;-76
2021/04/14 05:28:23;;;;;;;31.57;15.90;;;;;;;10.66;57.98;100492.91;125755;1099;104194;-77
2021/04/14 05:30:55;;;;;;;30.80;16.80;;;;;;;10.85;58.00;100493.55;125854;1099;104312;-77
2021/04/14 05:33:25;;;;;;;25.73;14.03;;;;;;;11.03;58.30;100483.68;125898;1099;104150;-77
2021/04/14 05:35:54;;;;;;;26.93;14.33;;;;;;;11.06;58.22;100490.74;125948;1098;104179;-77
2021/04/14 05:38:23;;;;;;;30.43;16.03;;;;;;;11.10;58.17;100496.15;125825;1098;104284;-77
2021/04/14 05:40:52;;;;;;;26.93;15.07;;;;;;;11.11;57.67;100491.78;125736;1098;104142;-77
2021/04/14 05:43:27;;;;;;;29.37;15.27;;;;;;;11.12;58.02;100501.45;125767;1099;104152;-78
2021/04/14 05:45:58;;;;;;;30.10;14.70;;;;;;;11.09;58.17;100502.23;125778;1099;104191;-78
2021/04/14 05:48:27;;;;;;;27.90;13.40;;;;;;;11.12;58.10;100496.20;125179;1099;104152;-78
2021/04/14 05:50:59;;;;;;;28.07;14.30;;;;;;;11.13;58.33;100493.63;125801;1099;104291;-78
2021/04/14 05:53:28;;;;;;;26.80;14.23;;;;;;;11.22;58.34;100489.51;125868;1099;106817;-79
2021/04/14 05:55:57;;;;;;;26.33;13.37;;;;;;;11.29;57.70;100491.51;125909;1099;104255;-77
2021/04/14 05:58:28;;;;;;;28.53;13.57;;;;;;;11.32;58.00;100491.61;125765;1099;104398;-78
2021/04/14 06:00:57;;;;;;;26.43;14.33;;;;;;;11.45;58.11;100487.63;125942;1099;104159;-78
2021/04/14 06:03:26;;;;;;;28.03;13.97;;;;;;;11.58;57.75;100483.68;125893;1099;105198;-80
2021/04/14 06:05:57;;;;;;;24.80;12.23;;;;;;;11.63;58.17;100484.70;125799;1099;105500;-80
2021/04/14 06:08:28;;;;;;;26.10;12.23;;;;;;;11.71;57.78;100475.31;125925;1099;104802;-77
2021/04/14 06:10:58;;;;;;;26.43;12.63;;;;;;;11.75;57.73;100477.20;125934;1099;104175;-77
2021/04/14 06:13:28;;;;;;;20.70;10.37;;;;;;;11.83;58.00;100464.29;125830;1099;105164;-78
2021/04/14 06:15:56;;;;;;;23.00;11.57;;;;;;;11.84;57.80;100471.31;125905;1099;104127;-77
2021/04/14 06:18:26;;;;;;;22.43;11.43;;;;;;;11.90;57.91;100465.35;125886;1099;104220;-77
2021/04/14 06:20:55;;;;;;;24.27;11.00;;;;;;;12.04;57.86;100467.59;125855;1099;104220;-78
2021/04/14 06:23:24;;;;;;;20.77;11.43;;;;;;;12.18;57.67;100473.22;125641;1099;104389;-78
2021/04/14 06:25:59;;;;;;;26.97;11.60;;;;;;;12.34;57.71;100471.02;125845;1099;104180;-78
2021/04/14 06:28:31;;;;;;;23.80;11.97;;;;;;;12.37;57.45;100466.77;125046;1099;104143;-78
2021/04/14 06:31:00;;;;;;;26.50;11.73;;;;;;;12.41;57.58;100457.20;125070;1102;104450;-79
2021/04/14 06:33:33;;;;;;;25.20;11.47;;;;;;;12.50;57.31;100453.94;125556;1099;104441;-78
2021/04/14 06:36:02;;;;;;;23.60;11.48;;;;;;;12.62;57.75;100454.28;125733;1099;104169;-78
2021/04/14 06:38:34;;;;;;;21.97;10.90;;;;;;;12.81;57.34;100441.56;125743;1099;104286;-77
2021/04/14 06:41:32;;;;;;;21.10;10.17;;;;;;;12.97;57.44;100450.77;125575;1099;104354;-77
2021/04/14 06:44:10;;;;;;;18.27;9.43;;;;;;;13.01;56.80;100442.98;125641;1099;105492;-78
2021/04/14 06:46:41;;;;;;;19.33;9.30;;;;;;;12.96;57.02;100439.32;124990;1099;104341;-77
2021/04/14 06:49:16;;;;;;;19.20;9.63;;;;;;;12.86;56.92;100440.84;124920;1099;104175;-78
2021/04/14 06:51:53;;;;;;;19.97;9.90;;;;;;;12.77;56.99;100441.48;125607;1099;104168;-78
2021/04/14 06:54:33;;;;;;;21.00;10.10;;;;;;;12.70;56.99;100442.20;125540;1098;104158;-78
2021/04/14 06:57:06;;;;;;;19.17;9.47;;;;;;;12.61;56.70;100446.34;125626;1099;104223;-77
2021/04/14 06:59:37;;;;;;;21.33;10.40;;;;;;;12.56;56.74;100444.46;125862;1099;104425;-77
2021/04/14 07:02:13;;;;;;;20.57;10.90;;;;;;;12.51;56.65;100438.20;125740;1099;104589;-78
2021/04/14 07:04:46;;;;;;;20.37;10.13;;;;;;;12.48;56.73;100438.11;125026;1099;104147;-78
2021/04/14 07:07:23;;;;;;;24.67;10.83;;;;;;;12.47;57.41;100445.97;125574;1099;104187;-79
2021/04/14 07:09:58;;;;;;;25.10;10.63;;;;;;;12.50;56.96;100440.78;125715;1099;104168;-79
2021/04/14 07:12:27;;;;;;;20.33;10.20;;;;;;;12.61;56.71;100436.69;125690;1099;104397;-78
2021/04/14 07:15:01;;;;;;;21.40;10.33;;;;;;;12.77;56.60;100435.34;125683;1099;107986;-79
2021/04/14 07:18:19;;;;;;;22.90;10.97;;;;;;;12.90;56.91;100431.27;125808;1099;104194;-78
2021/04/14 07:21:08;;;;;;;22.37;11.20;;;;;;;13.06;56.46;100443.09;125936;1099;104140;-78
2021/04/14 07:23:59;;;;;;;25.20;10.60;;;;;;;13.13;56.52;100431.84;125733;1099;104273;-78
2021/04/14 07:26:37;;;;;;;21.87;10.47;;;;;;;13.34;56.18;100439.41;125903;1099;104219;-78
2021/04/14 07:29:17;;;;;;;22.10;9.77;;;;;;;13.41;56.23;100428.13;125914;1099;104449;-78
2021/04/14 07:31:57;;;;;;;22.13;10.67;;;;;;;13.41;56.30;100429.89;125780;1099;104229;-77
2021/04/14 07:34:37;;;;;;;23.97;11.70;;;;;;;13.45;56.14;100432.63;125386;1099;104303;-77
2021/04/14 07:37:13;;;;;;;24.43;11.07;;;;;;;13.53;56.21;100427.53;125056;1099;104273;-78
2021/04/14 07:39:48;;;;;;;21.50;10.83;;;;;;;13.41;56.14;100427.25;125749;1099;104137;-78
2021/04/14 07:42:30;;;;;;;22.33;11.17;;;;;;;13.41;55.72;100427.25;125592;1099;104331;-78
2021/04/14 07:45:19;;;;;;;24.33;11.03;;;;;;;13.47;55.86;100432.67;125701;1099;104307;-79
2021/04/14 07:47:57;;;;;;;23.77;12.03;;;;;;;13.51;55.61;100420.44;125852;1099;104303;-78
2021/04/14 07:50:45;;;;;;;24.30;13.17;;;;;;;13.57;55.77;100413.58;125976;1099;104140;-78
2021/04/14 07:53:20;;;;;;;21.45;11.95;;;;;;;13.68;56.55;100415.54;125790;1099;104264;-78
2021/04/14 07:55:59;;;;;;;21.03;11.27;;;;;;;13.79;55.95;100407.02;125803;1099;107724;-77
2021/04/14 07:58:28;;;;;;;22.53;11.03;;;;;;;13.83;55.10;100414.11;125947;1099;104249;-78
2021/04/14 08:01:09;;;;;;;21.60;10.50;;;;;;;13.76;55.48;100411.31;125773;1099;104303;-77
2021/04/14 08:03:38;;;;;;;26.25;12.45;;;;;;;13.73;54.95;100408.61;125847;1099;104157;-78
2021/04/14 08:06:14;;;;;;;21.90;11.13;;;;;;;13.83;55.21;100407.95;125680;1099;104211;-77
2021/04/14 08:08:45;;;;;;;21.30;11.07;;;;;;;13.90;55.55;100409.87;125754;1099;104261;-78
2021/04/14 08:11:27;;;;;;;23.90;11.13;;;;;;;13.91;55.58;100406.36;125724;1099;104268;-78
2021/04/14 08:14:09;;;;;;;23.20;10.50;;;;;;;14.01;55.25;100405.70;125756;1099;104175;-79
2021/04/14 08:16:42;;;;;;;22.57;10.13;;;;;;;14.13;55.40;100404.16;125781;1099;106020;-79
2021/04/14 08:19:20;;;;;;;21.33;10.67;;;;;;;14.25;54.43;100399.12;125881;1099;104611;-79
2021/04/14 08:22:04;;;;;;;20.40;9.90;;;;;;;14.33;55.30;100399.27;125880;1099;104161;-78
2021/04/14 08:24:36;;;;;;;23.17;10.03;;;;;;;14.31;54.41;100395.72;125892;1099;104152;-78
2021/04/14 08:27:15;;;;;;;18.03;9.60;;;;;;;14.27;55.00;100401.78;125782;1100;104165;-78
2021/04/14 08:29:44;;;;;;;19.23;9.63;;;;;;;14.31;54.52;100399.23;125848;1099;104149;-78
2021/04/14 08:32:14;;;;;;;22.73;9.90;;;;;;;14.37;53.97;100391.44;125986;1099;104628;-77
2021/04/14 08:34:55;;;;;;;18.83;9.43;;;;;;;14.41;54.69;100394.13;125880;1099;104354;-78
2021/04/14 08:37:26;;;;;;;20.73;9.13;;;;;;;14.40;54.56;100387.97;125780;1099;104182;-78
2021/04/14 08:39:58;;;;;;;21.47;9.97;;;;;;;14.49;54.47;100388.14;125796;1099;104176;-77
2021/04/14 08:42:32;;;;;;;21.50;10.03;;;;;;;14.48;53.86;100382.83;125881;1099;104373;-78
2021/04/14 08:45:17;;;;;;;18.85;9.33;;;;;;;14.46;53.27;100373.97;125881;1099;104174;-77
2021/04/14 08:47:52;;;;;;;19.07;9.00;;;;;;;14.43;54.25;100377.47;125899;1099;104347;-77
2021/04/14 08:50:29;;;;;;;19.20;9.03;;;;;;;14.43;53.59;100372.19;125861;1099;104134;-78
2021/04/14 08:53:02;;;;;;;19.53;8.80;;;;;;;14.35;54.20;100372.05;125955;1099;104166;-77
2021/04/14 08:55:31;;;;;;;19.67;8.13;;;;;;;14.27;54.05;100367.48;125803;1099;104178;-78
2021/04/14 08:58:01;;;;;;;17.50;7.57;;;;;;;14.21;53.60;100365.64;125783;1099;104259;-79
2021/04/14 09:00:32;;;;;;;17.50;7.97;;;;;;;14.17;53.35;100369.06;125528;1099;104301;-78
2021/04/14 09:03:04;;;;;;;17.53;8.13;;;;;;;14.08;54.01;100359.21;125723;1099;104208;-78
2021/04/14 09:05:37;;;;;;;20.03;8.43;;;;;;;14.00;54.21;100359.06;125735;1099;104162;-78
2021/04/14 09:08:12;;;;;;;16.33;8.07;;;;;;;13.95;53.87;100358.09;125109;1099;104188;-78
2021/04/14 09:10:49;;;;;;;17.60;7.60;;;;;;;13.91;54.08;100352.73;125773;1099;104383;-78
2021/04/14 09:13:31;;;;;;;16.47;7.73;;;;;;;13.81;53.89;100349.91;125751;1099;104176;-78
2021/04/14 09:16:04;;;;;;;17.60;8.40;;;;;;;13.70;53.97;100353.17;125024;1099;104322;-79
2021/04/14 09:18:35;;;;;;;16.27;8.07;;;;;;;13.74;53.14;100353.27;125016;1102;104258;-78
2021/04/14 09:21:11;;;;;;;17.90;7.63;;;;;;;13.87;53.73;100348.23;124960;1102;105182;-79
2021/04/14 09:23:51;;;;;;;21.43;8.07;;;;;;;14.00;52.92;100342.36;124912;1099;104168;-77
2021/04/14 09:26:28;;;;;;;15.13;7.47;;;;;;;14.08;53.87;100345.14;124957;1099;104529;-79
2021/04/14 09:28:58;;;;;;;17.07;7.97;;;;;;;14.02;53.58;100341.53;125017;1099;104299;-77
2021/04/14 09:31:39;;;;;;;20.83;8.20;;;;;;;13.92;52.84;100339.56;124948;1099;104210;-78
2021/04/14 09:34:17;;;;;;;16.97;7.63;;;;;;;13.86;53.00;100342.09;124984;1099;104296;-78
2021/04/14 09:36:58;;;;;;;18.07;8.47;;;;;;;13.83;53.20;100331.47;125396;1099;104213;-79
2021/04/14 09:39:34;;;;;;;16.03;7.50;;;;;;;13.81;52.94;100334.08;124908;1099;104204;-78
2021/04/14 09:42:14;;;;;;;17.47;8.30;;;;;;;13.77;53.13;100333.98;124944;1102;104334;-77
2021/04/14 09:44:44;;;;;;;19.20;8.73;;;;;;;13.71;52.53;100331.23;124980;1099;104271;-78
2021/04/14 09:47:35;;;;;;;17.00;8.48;;;;;;;13.58;52.65;100317.79;125227;1100;104200;-77
2021/04/14 09:50:20;;;;;;;18.63;7.87;;;;;;;13.40;52.27;100320.95;125657;1099;104169;-78
2021/04/14 09:52:53;;;;;;;17.00;8.20;;;;;;;13.39;52.93;100336.73;126211;1099;102431;-76
2021/04/14 09:55:32;;;;;;;15.10;7.90;;;;;;;13.32;53.11;100325.11;125917;1099;104184;-77
2021/04/14 09:58:08;;;;;;;17.57;7.77;;;;;;;13.23;52.67;100323.19;125840;1099;104159;-77
2021/04/14 10:00:43;;;;;;;19.67;8.83;;;;;;;13.16;52.96;100315.11;125089;1099;104162;-78
2021/04/14 10:03:21;;;;;;;18.63;8.07;;;;;;;13.02;53.13;100307.77;125789;1099;104146;-77
2021/04/14 10:05:51;;;;;;;19.30;8.53;;;;;;;13.05;52.85;100317.50;125973;1099;104345;-77
2021/04/14 10:08:21;;;;;;;19.87;8.73;;;;;;;13.03;53.09;100311.32;125603;1099;104325;-77
2021/04/14 10:10:51;;;;;;;17.30;8.73;;;;;;;13.04;52.95;100305.17;125974;1099;104759;-76
2021/04/14 10:13:21;;;;;;;21.07;7.97;;;;;;;13.16;53.21;100305.45;125629;1099;104185;-77
2021/04/14 10:15:51;;;;;;;17.90;7.97;;;;;;;13.39;53.09;100305.11;125931;1099;104267;-77
2021/04/14 10:18:24;;;;;;;16.43;7.90;;;;;;;13.58;52.54;100299.34;126075;1098;104203;-77
2021/04/14 10:20:54;;;;;;;15.83;8.17;;;;;;;13.81;53.13;100302.44;125629;1099;104168;-78
2021/04/14 10:23:26;;;;;;;15.23;7.73;;;;;;;14.07;53.22;100294.14;125730;1099;104147;-78
2021/04/14 10:26:06;;;;;;;15.13;8.00;;;;;;;14.31;52.14;100290.14;125812;1099;104165;-76
2021/04/14 10:28:46;;;;;;;16.77;8.20;;;;;;;14.41;52.22;100288.54;125479;1099;104461;-77
2021/04/14 10:31:22;;;;;;;17.50;8.40;;;;;;;14.32;51.76;100292.81;125798;1099;104178;-77
2021/04/14 10:33:51;;;;;;;18.50;8.83;;;;;;;14.21;52.18;100302.30;125899;1099;104075;-77
2021/04/14 10:36:31;;;;;;;18.53;8.87;;;;;;;14.05;52.18;100294.95;126041;1099;104146;-76
2021/04/14 10:39:09;;;;;;;20.20;8.53;;;;;;;13.81;52.57;100298.92;125743;1099;104217;-77
2021/04/14 10:41:39;;;;;;;18.57;9.17;;;;;;;13.63;52.29;100299.43;125786;1099;104174;-78
2021/04/14 10:44:25;;;;;;;20.20;9.13;;;;;;;13.47;52.32;100299.12;125767;1099;104313;-78
2021/04/14 10:47:03;;;;;;;21.70;10.80;;;;;;;13.37;52.09;100298.89;126927;1098;104063;-77
2021/04/14 10:49:37;;;;;;;19.83;9.50;;;;;;;13.34;52.74;100296.19;125655;1099;110860;-77
2021/04/14 10:52:20;;;;;;;24.77;9.87;;;;;;;13.37;52.39;100294.53;125738;1099;104201;-76
2021/04/14 10:54:51;;;;;;;20.97;10.00;;;;;;;13.49;52.46;100296.52;126178;1099;104139;-77
2021/04/14 10:57:27;;;;;;;18.93;9.33;;;;;;;13.57;52.06;100292.31;125790;1099;104201;-78
2021/04/14 11:00:04;;;;;;;20.23;9.30;;;;;;;13.63;51.98;100291.52;125715;1098;104293;-77
2021/04/14 11:02:37;;;;;;;18.27;9.20;;;;;;;13.70;52.20;100288.16;125639;1099;104188;-78
2021/04/14 11:05:09;;;;;;;16.57;8.00;;;;;;;13.80;52.21;100287.45;125844;1099;104215;-77
2021/04/14 11:07:38;;;;;;;18.63;8.17;;;;;;;13.87;51.43;100280.58;125676;1099;104242;-78
2021/04/14 11:10:11;;;;;;;17.53;8.50;;;;;;;14.00;51.89;100282.56;125601;1099;104398;-78
2021/04/14 11:12:48;;;;;;;18.80;8.53;;;;;;;14.19;52.39;100278.52;125667;1099;104303;-77
2021/04/14 11:15:20;;;;;;;18.70;8.80;;;;;;;14.34;52.48;100280.52;125790;1099;104239;-78
2021/04/14 11:17:56;;;;;;;17.83;8.43;;;;;;;14.41;51.78;100273.58;125781;1099;102455;-78
2021/04/14 11:20:38;;;;;;;14.97;7.57;;;;;;;14.31;51.49;100277.83;125663;1099;119698;-78
2021/04/14 11:23:18;;;;;;;14.53;7.23;;;;;;;14.07;51.43;100282.67;125746;1099;104380;-76